Time;durP1;ratioP1;P1;durP2;ratioP2;P2;SDS_P1;SDS_P2;PMS_P1;PMS_P2;Temp;Humidity;BMP_temperature;BMP_pressure;BME280_temperature;BME280_humidity;BME280_pressure;Samples;Min_cycle;Max_cycle;Signal;HPM_P1;HPM_P2
2021/05/06 00:02:31;;;;;;;1.45;0.57;;;;;;;;;;5039033;28;20400;-89
2021/05/06 00:34:26;;;;;;;1.00;0.60;;;;;;;;;;5017846;28;20116;-89
2021/05/06 00:36:51;;;;;;;1.63;0.60;;;;;;;;;;5020687;28;20072;-88
2021/05/06 00:39:25;;;;;;;1.33;0.50;;;;;;;;;;5017461;28;20026;-89
2021/05/06 01:02:55;;;;;;;1.23;0.60;;;;;;;;;;5036984;28;20039;-89
2021/05/06 01:05:27;;;;;;;1.40;0.50;;;;;;;;;;5039164;28;20032;-89
2021/05/06 01:10:54;;;;;;;1.10;0.40;;;;;;;;;;5038035;28;20040;-89
2021/05/06 01:13:26;;;;;;;0.95;0.40;;;;;;;;;;5027237;28;20064;-89
2021/05/06 01:15:52;;;;;;;0.88;0.50;;;;;;;;;;5022144;28;20021;-87
2021/05/06 01:18:17;;;;;;;1.03;0.50;;;;;;;;;;5020160;28;20107;-89
2021/05/06 01:20:48;;;;;;;0.93;0.50;;;;;;;;;;5019815;28;20056;-89
2021/05/06 01:23:13;;;;;;;0.90;0.50;;;;;;;;;;5009728;28;20036;-89
2021/05/06 01:25:42;;;;;;;0.90;0.50;;;;;;;;;;5000261;28;20120;-88
2021/05/06 01:28:11;;;;;;;1.27;0.60;;;;;;;;;;5002126;28;20028;-88
2021/05/06 01:30:42;;;;;;;2.17;0.50;;;;;;;;;;5000824;28;20164;-89
2021/05/06 01:33:15;;;;;;;1.10;0.47;;;;;;;;;;5001683;28;20021;-89
2021/05/06 01:36:25;;;;;;;1.08;0.40;;;;;;;;;;5001807;28;20075;-89
2021/05/06 01:38:53;;;;;;;1.25;0.50;;;;;;;;;;5014305;28;20036;-89
2021/05/06 01:45:04;;;;;;;1.08;0.50;;;;;;;;;;5018598;28;20062;-89
2021/05/06 01:47:05;;;;;;;1.00;0.40;;;;;;;;;;5012060;28;20036;-89
2021/05/06 02:00:02;;;;;;;1.20;0.55;;;;;;;;;;5017111;28;20021;-89
2021/05/06 02:02:27;;;;;;;1.02;0.50;;;;;;;;;;5000583;28;20029;-88
2021/05/06 02:04:53;;;;;;;1.37;0.47;;;;;;;;;;4999599;28;20369;-89
2021/05/06 02:07:18;;;;;;;0.80;0.47;;;;;;;;;;4999794;28;20041;-89
2021/05/06 02:09:46;;;;;;;0.63;0.37;;;;;;;;;;5012536;28;20033;-89
2021/05/06 02:12:12;;;;;;;1.00;0.50;;;;;;;;;;5019681;28;20031;-90
2021/05/06 02:14:38;;;;;;;1.05;0.47;;;;;;;;;;5035872;28;20028;-89
2021/05/06 02:17:03;;;;;;;1.37;0.37;;;;;;;;;;5019133;28;20025;-88
2021/05/06 02:19:33;;;;;;;1.57;0.40;;;;;;;;;;5002762;28;20030;-89
2021/05/06 02:22:01;;;;;;;1.38;0.50;;;;;;;;;;5032201;28;20027;-89
2021/05/06 02:24:26;;;;;;;1.40;0.70;;;;;;;;;;4999942;28;20056;-89
2021/05/06 02:26:53;;;;;;;1.03;0.50;;;;;;;;;;4999096;28;20041;-89
2021/05/06 02:29:18;;;;;;;;;;;;;;;;;;5000011;28;20022;-89
2021/05/06 02:31:43;;;;;;;1.33;0.60;;;;;;;;;;5015644;28;19931;-89
2021/05/06 02:34:08;;;;;;;1.73;0.43;;;;;;;;;;5015621;28;20017;-89
2021/05/06 02:36:34;;;;;;;0.87;0.40;;;;;;;;;;4999207;28;20472;-89
2021/05/06 02:39:00;;;;;;;1.07;0.50;;;;;;;;;;4999183;28;20021;-89
2021/05/06 02:41:25;;;;;;;0.70;0.40;;;;;;;;;;5015750;28;20472;-88
2021/05/06 02:43:50;;;;;;;1.23;0.53;;;;;;;;;;5015678;28;20057;-89
2021/05/06 02:46:16;;;;;;;0.87;0.50;;;;;;;;;;4998958;28;20064;-89
2021/05/06 02:48:41;;;;;;;1.20;0.60;;;;;;;;;;5015557;28;20057;-89
2021/05/06 02:51:07;;;;;;;0.90;0.40;;;;;;;;;;5015742;28;20061;-89
2021/05/06 02:53:37;;;;;;;0.93;0.47;;;;;;;;;;4999522;28;20078;-89
2021/05/06 02:58:51;;;;;;;0.63;0.40;;;;;;;;;;5015788;28;20486;-89
2021/05/06 03:04:03;;;;;;;1.30;0.55;;;;;;;;;;5022491;28;20035;-88
2021/05/06 03:06:31;;;;;;;0.90;0.50;;;;;;;;;;5019229;28;20025;-89
2021/05/06 03:09:06;;;;;;;1.20;0.40;;;;;;;;;;5022295;28;20029;-89
2021/05/06 03:24:26;;;;;;;0.87;0.40;;;;;;;;;;5002904;28;20076;-89
2021/05/06 03:26:52;;;;;;;1.02;0.50;;;;;;;;;;5003794;28;20033;-89
2021/05/06 03:29:41;;;;;;;0.70;0.40;;;;;;;;;;5002684;28;20395;-89
2021/05/06 03:32:19;;;;;;;0.80;0.47;;;;;;;;;;5008841;28;20071;-89
2021/05/06 03:34:52;;;;;;;3.95;0.50;;;;;;;;;;5004196;28;20021;-89
2021/05/06 03:43:46;;;;;;;0.85;0.50;;;;;;;;;;5007630;28;20114;-88
2021/05/06 03:48:50;;;;;;;1.60;0.38;;;;;;;;;;5011943;28;20037;-88
2021/05/06 04:03:18;;;;;;;0.88;0.35;;;;;;;;;;5018748;28;20412;-88
2021/05/06 04:15:23;;;;;;;1.00;0.40;;;;;;;;;;5024280;28;20054;-86
2021/05/06 04:17:58;;;;;;;0.80;0.50;;;;;;;;;;5023159;28;20029;-86
2021/05/06 04:25:46;;;;;;;0.98;0.40;;;;;;;;;;5007679;28;20028;-86
2021/05/06 04:36:17;;;;;;;1.05;0.50;;;;;;;;;;5043587;28;20400;-86
2021/05/06 04:38:42;;;;;;;0.93;0.40;;;;;;;;;;5019586;28;20390;-87
2021/05/06 04:41:58;;;;;;;0.67;0.40;;;;;;;;;;5007827;28;20108;-87
2021/05/06 04:46:47;;;;;;;1.05;0.50;;;;;;;;;;5025340;28;20492;-86
2021/05/06 04:54:45;;;;;;;1.08;0.40;;;;;;;;;;5040415;28;20051;-85
2021/05/06 05:05:23;;;;;;;1.08;0.38;;;;;;;;;;5025075;28;20110;-87
2021/05/06 05:07:52;;;;;;;0.77;0.40;;;;;;;;;;5003885;28;20506;-86
2021/05/06 05:18:42;;;;;;;0.75;0.40;;;;;;;;;;5021895;28;20056;-89
2021/05/06 05:23:55;;;;;;;0.77;0.40;;;;;;;;;;5022272;28;20086;-87
2021/05/06 05:26:21;;;;;;;0.88;0.40;;;;;;;;;;5032614;28;20028;-88
2021/05/06 05:28:46;;;;;;;0.83;0.37;;;;;;;;;;5011348;28;20033;-88
2021/05/06 05:31:11;;;;;;;0.70;0.40;;;;;;;;;;5018087;28;20063;-88
2021/05/06 05:33:50;;;;;;;1.20;0.40;;;;;;;;;;4985236;28;20053;-87
2021/05/06 05:36:18;;;;;;;0.93;0.43;;;;;;;;;;5003795;28;20155;-88
2021/05/06 05:39:06;;;;;;;0.40;0.30;;;;;;;;;;5027928;28;20028;-88
2021/05/06 05:54:58;;;;;;;0.40;0.20;;;;;;;;;;5038952;28;20094;-88
2021/05/06 05:57:23;;;;;;;0.77;0.30;;;;;;;;;;5011969;28;20021;-88
2021/05/06 05:59:49;;;;;;;1.67;0.50;;;;;;;;;;5008342;28;20090;-88
2021/05/06 06:02:14;;;;;;;1.77;0.50;;;;;;;;;;5017024;28;20108;-88
2021/05/06 06:04:39;;;;;;;1.40;0.40;;;;;;;;;;4999512;28;20111;-88
2021/05/06 06:07:06;;;;;;;0.90;0.50;;;;;;;;;;4999745;28;20061;-88
2021/05/06 06:09:31;;;;;;;2.53;0.40;;;;;;;;;;5016461;28;20116;-87
2021/05/06 06:11:57;;;;;;;0.37;0.27;;;;;;;;;;4999635;28;20121;-88
2021/05/06 06:14:28;;;;;;;0.63;0.30;;;;;;;;;;5025452;28;20579;-87
2021/05/06 06:16:54;;;;;;;0.90;0.50;;;;;;;;;;5013039;28;20056;-87
2021/05/06 06:19:24;;;;;;;1.33;0.30;;;;;;;;;;5019525;28;20032;-87
2021/05/06 06:21:52;;;;;;;0.73;0.40;;;;;;;;;;5029751;28;20028;-87
2021/05/06 06:24:19;;;;;;;1.10;0.40;;;;;;;;;;5014484;28;20068;-87
2021/05/06 06:26:45;;;;;;;;;;;;;;;;;;5000070;28;20022;-87
2021/05/06 06:29:14;;;;;;;0.47;0.30;;;;;;;;;;5013927;28;19913;-88
2021/05/06 06:31:45;;;;;;;0.50;0.30;;;;;;;;;;5003611;28;20115;-88
2021/05/06 06:34:10;;;;;;;0.88;0.45;;;;;;;;;;5036223;28;20484;-88
2021/05/06 06:36:36;;;;;;;1.27;0.40;;;;;;;;;;5033680;28;20058;-88
2021/05/06 06:39:02;;;;;;;0.43;0.33;;;;;;;;;;5019009;28;20162;-88
2021/05/06 06:41:28;;;;;;;;;;;;;;;;;;5003977;28;20040;-87
2021/05/06 06:43:55;;;;;;;0.68;0.30;;;;;;;;;;5039811;28;19908;-88
2021/05/06 06:46:21;;;;;;;1.10;0.40;;;;;;;;;;5023574;28;20111;-88
2021/05/06 06:48:46;;;;;;;0.93;0.47;;;;;;;;;;5019444;28;20183;-87
2021/05/06 06:51:12;;;;;;;0.90;0.30;;;;;;;;;;5003219;28;20125;-88
2021/05/06 06:53:37;;;;;;;0.50;0.30;;;;;;;;;;5010846;28;20036;-88
2021/05/06 06:56:03;;;;;;;0.97;0.40;;;;;;;;;;5019528;28;20028;-88
2021/05/06 06:58:29;;;;;;;1.05;0.40;;;;;;;;;;5021269;28;20432;-87
2021/05/06 07:00:54;;;;;;;0.60;0.40;;;;;;;;;;5038823;28;20063;-88
2021/05/06 07:03:19;;;;;;;0.50;0.30;;;;;;;;;;5016015;28;20099;-87
2021/05/06 07:05:45;;;;;;;0.97;0.50;;;;;;;;;;5003081;28;20052;-87
2021/05/06 07:08:31;;;;;;;0.70;0.40;;;;;;;;;;5002969;28;20033;-87
2021/05/06 07:10:58;;;;;;;1.02;0.40;;;;;;;;;;5014959;28;20044;-87
2021/05/06 07:13:23;;;;;;;;;;;;;;;;;;5003391;28;20083;-87
2021/05/06 07:15:53;;;;;;;0.57;0.30;;;;;;;;;;5035597;28;19909;-87
2021/05/06 07:18:19;;;;;;;0.32;0.30;;;;;;;;;;5022325;28;20112;-86
2021/05/06 07:20:45;;;;;;;1.30;0.40;;;;;;;;;;5038668;28;20112;-87
2021/05/06 07:23:11;;;;;;;0.60;0.40;;;;;;;;;;5029065;28;20036;-87
2021/05/06 07:25:36;;;;;;;0.47;0.30;;;;;;;;;;5002482;28;20037;-87
2021/05/06 07:28:21;;;;;;;0.90;0.40;;;;;;;;;;5002703;28;20436;-87
2021/05/06 07:30:48;;;;;;;0.90;0.32;;;;;;;;;;5002554;28;20075;-87
2021/05/06 07:33:13;;;;;;;0.68;0.38;;;;;;;;;;5005232;28;20028;-87
2021/05/06 07:35:38;;;;;;;0.80;0.37;;;;;;;;;;5038580;28;20029;-87
2021/05/06 07:38:04;;;;;;;0.70;0.40;;;;;;;;;;5033759;28;20029;-87
2021/05/06 07:40:30;;;;;;;1.38;0.50;;;;;;;;;;5008868;28;20032;-87
2021/05/06 07:42:55;;;;;;;0.70;0.50;;;;;;;;;;5034486;28;20024;-87
2021/05/06 07:45:21;;;;;;;1.33;0.50;;;;;;;;;;5017667;28;20057;-87
2021/05/06 07:47:46;;;;;;;1.80;0.47;;;;;;;;;;5018541;28;20041;-87
2021/05/06 07:50:12;;;;;;;0.90;0.33;;;;;;;;;;5021459;28;20039;-87
2021/05/06 07:52:38;;;;;;;0.60;0.30;;;;;;;;;;5028822;28;20152;-88
2021/05/06 07:55:03;;;;;;;0.75;0.38;;;;;;;;;;5022936;28;20089;-87
2021/05/06 07:57:29;;;;;;;0.97;0.40;;;;;;;;;;4998713;28;20484;-86
2021/05/06 07:59:54;;;;;;;0.60;0.30;;;;;;;;;;4985716;28;20433;-86
2021/05/06 08:02:20;;;;;;;0.60;0.37;;;;;;;;;;4993364;28;20067;-86
2021/05/06 08:04:46;;;;;;;0.75;0.30;;;;;;;;;;5021893;28;20021;-86
2021/05/06 08:07:11;;;;;;;0.77;0.40;;;;;;;;;;5037992;28;20183;-86
2021/05/06 08:09:37;;;;;;;0.77;0.30;;;;;;;;;;5021235;28;20107;-86
2021/05/06 08:12:03;;;;;;;0.60;0.40;;;;;;;;;;5021031;28;20029;-86
2021/05/06 08:14:28;;;;;;;1.20;0.52;;;;;;;;;;5036234;28;20484;-86
2021/05/06 08:16:54;;;;;;;0.60;0.30;;;;;;;;;;5021329;28;20056;-86
2021/05/06 08:19:19;;;;;;;1.03;0.50;;;;;;;;;;5037976;28;20029;-86
2021/05/06 08:21:45;;;;;;;1.00;0.50;;;;;;;;;;5021358;28;20106;-86
2021/05/06 08:24:11;;;;;;;0.80;0.40;;;;;;;;;;5021233;28;20025;-85
2021/05/06 08:26:36;;;;;;;0.77;0.30;;;;;;;;;;5021224;28;20078;-85
2021/05/06 08:29:01;;;;;;;1.00;0.40;;;;;;;;;;5021242;28;20120;-86
2021/05/06 08:31:27;;;;;;;1.90;0.30;;;;;;;;;;5037918;28;20017;-86
2021/05/06 08:33:52;;;;;;;0.87;0.47;;;;;;;;;;5021461;28;20059;-86
2021/05/06 08:36:17;;;;;;;0.87;0.33;;;;;;;;;;5004837;28;20017;-86
2021/05/06 08:38:43;;;;;;;0.57;0.30;;;;;;;;;;5005322;28;20052;-86
2021/05/06 08:41:08;;;;;;;0.97;0.43;;;;;;;;;;5020980;28;20021;-86
2021/05/06 08:43:36;;;;;;;0.83;0.33;;;;;;;;;;5037503;28;20052;-86
2021/05/06 08:46:02;;;;;;;1.17;0.45;;;;;;;;;;5021111;28;20017;-86
2021/05/06 08:48:27;;;;;;;1.17;0.40;;;;;;;;;;5020741;28;20187;-86
2021/05/06 08:50:54;;;;;;;0.80;0.40;;;;;;;;;;5020773;28;20025;-86
2021/05/06 09:16:52;;;;;;;0.60;0.40;;;;;;;;;;5051687;28;20059;-86
2021/05/06 09:19:20;;;;;;;1.20;0.40;;;;;;;;;;5049081;28;20078;-86
2021/05/06 09:21:46;;;;;;;0.60;0.40;;;;;;;;;;5020985;28;20032;-86
2021/05/06 09:24:28;;;;;;;0.53;0.37;;;;;;;;;;5020568;28;20021;-86
2021/05/06 09:26:54;;;;;;;1.42;0.40;;;;;;;;;;5010771;28;20017;-87
2021/05/06 09:29:41;;;;;;;0.77;0.50;;;;;;;;;;5016967;28;20025;-86
2021/05/06 09:32:07;;;;;;;0.53;0.40;;;;;;;;;;5017679;28;20498;-86
2021/05/06 09:34:39;;;;;;;1.52;0.50;;;;;;;;;;5000675;28;20256;-86
2021/05/06 09:37:08;;;;;;;1.05;0.50;;;;;;;;;;5017586;28;20037;-86
2021/05/06 09:39:36;;;;;;;0.77;0.40;;;;;;;;;;5018115;28;20025;-87
2021/05/06 09:42:08;;;;;;;1.83;0.50;;;;;;;;;;5017783;28;20029;-87
2021/05/06 09:44:53;;;;;;;1.15;0.50;;;;;;;;;;5001990;28;20025;-87
2021/05/06 09:47:18;;;;;;;1.55;0.45;;;;;;;;;;5018129;28;20104;-87
2021/05/06 09:49:44;;;;;;;0.93;0.40;;;;;;;;;;5009631;28;20091;-87
2021/05/06 09:52:09;;;;;;;0.73;0.40;;;;;;;;;;5028510;28;20025;-87
2021/05/06 09:54:34;;;;;;;1.17;0.50;;;;;;;;;;5036440;28;20021;-88
2021/05/06 09:57:04;;;;;;;0.83;0.37;;;;;;;;;;5033247;28;20026;-88
2021/05/06 09:59:35;;;;;;;1.02;0.40;;;;;;;;;;5002887;28;20074;-88
2021/05/06 10:02:10;;;;;;;0.85;0.50;;;;;;;;;;5025679;28;20021;-86
2021/05/06 10:04:37;;;;;;;0.80;0.40;;;;;;;;;;5036378;28;20539;-86
2021/05/06 10:07:22;;;;;;;0.77;0.40;;;;;;;;;;5037248;28;20068;-86
2021/05/06 10:09:55;;;;;;;0.75;0.50;;;;;;;;;;5037483;28;20451;-87
2021/05/06 10:12:21;;;;;;;0.95;0.40;;;;;;;;;;5017369;28;20021;-86
2021/05/06 10:14:47;;;;;;;1.75;0.40;;;;;;;;;;5001705;28;20129;-87
2021/05/06 10:17:16;;;;;;;0.63;0.50;;;;;;;;;;5001270;28;20106;-86
2021/05/06 10:19:42;;;;;;;1.73;0.40;;;;;;;;;;5001014;28;20025;-86
2021/05/06 10:22:11;;;;;;;0.90;0.40;;;;;;;;;;5022205;28;20043;-87
2021/05/06 10:24:41;;;;;;;1.38;0.50;;;;;;;;;;5002377;28;20032;-87
2021/05/06 10:27:09;;;;;;;1.13;0.50;;;;;;;;;;5004312;28;20045;-88
2021/05/06 10:29:34;;;;;;;0.77;0.40;;;;;;;;;;5024703;28;20488;-87
2021/05/06 10:32:00;;;;;;;0.83;0.43;;;;;;;;;;4999785;28;20065;-87
2021/05/06 10:34:25;;;;;;;1.13;0.40;;;;;;;;;;5012034;28;20033;-86
2021/05/06 10:36:51;;;;;;;1.60;0.43;;;;;;;;;;5024114;28;20025;-87
2021/05/06 10:39:16;;;;;;;2.73;0.50;;;;;;;;;;5018080;28;20029;-86
2021/05/06 10:41:41;;;;;;;1.33;0.60;;;;;;;;;;5019582;28;20032;-86
2021/05/06 10:44:08;;;;;;;0.50;0.40;;;;;;;;;;5019774;28;20021;-86
2021/05/06 10:46:59;;;;;;;;;;;;;;;;;;5026157;28;20025;-86
2021/05/06 10:49:25;;;;;;;0.98;0.40;;;;;;;;;;5032883;28;19931;-86
2021/05/06 10:52:00;;;;;;;1.38;0.52;;;;;;;;;;5016806;28;20507;-86
2021/05/06 10:54:30;;;;;;;1.45;0.50;;;;;;;;;;5016590;28;20032;-86
2021/05/06 10:56:56;;;;;;;0.73;0.43;;;;;;;;;;5025238;28;20029;-86
2021/05/06 10:59:23;;;;;;;0.50;0.40;;;;;;;;;;4999825;28;20021;-86
2021/05/06 11:01:48;;;;;;;;;;;;;;;;;;5017099;28;20029;-86
2021/05/06 11:04:13;;;;;;;0.80;0.47;;;;;;;;;;5016779;28;19909;-86
2021/05/06 11:06:39;;;;;;;1.37;0.50;;;;;;;;;;5017070;28;20456;-86
2021/05/06 11:09:36;;;;;;;1.10;0.50;;;;;;;;;;4985089;28;20079;-86
2021/05/06 11:12:20;;;;;;;0.60;0.35;;;;;;;;;;5016353;28;20026;-86
2021/05/06 11:14:58;;;;;;;1.33;0.50;;;;;;;;;;5025384;28;20384;-86
2021/05/06 11:17:23;;;;;;;1.50;0.50;;;;;;;;;;5053681;28;20039;-86
2021/05/06 11:19:48;;;;;;;0.53;0.40;;;;;;;;;;5014387;28;20108;-86
2021/05/06 11:22:46;;;;;;;1.13;0.47;;;;;;;;;;4999469;28;20075;-86
2021/05/06 11:25:40;;;;;;;0.70;0.40;;;;;;;;;;5043600;28;20025;-86
2021/05/06 11:30:36;;;;;;;0.88;0.40;;;;;;;;;;5077418;28;20759;-78
2021/05/06 11:33:24;;;;;;;1.17;0.50;;;;;;;;;;5065957;28;20119;-79
2021/05/06 11:35:56;;;;;;;0.57;0.30;;;;;;;;;;5073634;28;20024;-78
2021/05/06 11:38:22;;;;;;;0.75;0.40;;;;;;;;;;5058068;28;20029;-78
2021/05/06 11:40:47;;;;;;;0.47;0.30;;;;;;;;;;5045429;28;20078;-78
2021/05/06 11:43:22;;;;;;;1.20;0.60;;;;;;;;;;5026636;28;20024;-78
2021/05/06 11:45:47;;;;;;;1.10;0.55;;;;;;;;;;5043368;28;20221;-78
2021/05/06 11:48:13;;;;;;;0.70;0.40;;;;;;;;;;5026921;28;20463;-78
2021/05/06 11:50:45;;;;;;;0.73;0.40;;;;;;;;;;5043309;28;20025;-78
2021/05/06 11:53:14;;;;;;;0.65;0.45;;;;;;;;;;5026890;28;20059;-78
2021/05/06 11:55:42;;;;;;;1.23;0.60;;;;;;;;;;5026428;28;20111;-78
2021/05/06 11:58:09;;;;;;;2.08;0.68;;;;;;;;;;5044868;28;20028;-78
2021/05/06 12:00:35;;;;;;;0.85;0.40;;;;;;;;;;5026657;28;20025;-77
2021/05/06 12:03:04;;;;;;;1.33;0.57;;;;;;;;;;5024887;28;20035;-76
2021/05/06 12:05:56;;;;;;;1.85;0.50;;;;;;;;;;5026560;28;20082;-78
2021/05/06 12:08:26;;;;;;;0.93;0.40;;;;;;;;;;5043305;28;20020;-79
2021/05/06 12:10:52;;;;;;;0.70;0.40;;;;;;;;;;5026794;28;20020;-78
2021/05/06 12:13:31;;;;;;;1.30;0.50;;;;;;;;;;5041804;28;20024;-78
2021/05/06 12:16:29;;;;;;;0.90;0.40;;;;;;;;;;5043173;28;20024;-77
2021/05/06 12:19:00;;;;;;;0.75;0.40;;;;;;;;;;4995204;28;20494;-78
2021/05/06 12:21:27;;;;;;;1.38;0.60;;;;;;;;;;5039432;28;20028;-78
2021/05/06 12:23:52;;;;;;;1.25;0.55;;;;;;;;;;5015348;28;20032;-77
2021/05/06 12:26:18;;;;;;;0.83;0.60;;;;;;;;;;5026375;28;20055;-78
2021/05/06 12:28:44;;;;;;;0.97;0.60;;;;;;;;;;5025599;28;20025;-78
2021/05/06 12:31:09;;;;;;;0.77;0.50;;;;;;;;;;5024988;28;20279;-78
2021/05/06 12:33:35;;;;;;;1.10;0.57;;;;;;;;;;5025712;28;20438;-78
2021/05/06 12:36:00;;;;;;;0.67;0.40;;;;;;;;;;5040395;28;20026;-78
2021/05/06 12:38:26;;;;;;;0.83;0.50;;;;;;;;;;5042420;28;20035;-77
2021/05/06 12:40:53;;;;;;;1.60;0.40;;;;;;;;;;5025233;28;20071;-78
2021/05/06 12:43:34;;;;;;;0.85;0.35;;;;;;;;;;5025267;28;20522;-78
2021/05/06 12:46:10;;;;;;;1.35;0.47;;;;;;;;;;5027091;28;20024;-78
2021/05/06 12:48:39;;;;;;;1.45;0.60;;;;;;;;;;5042052;28;20069;-77
2021/05/06 12:51:05;;;;;;;0.75;0.40;;;;;;;;;;5042360;28;20033;-78
2021/05/06 12:53:30;;;;;;;1.07;0.50;;;;;;;;;;5023729;28;20020;-78
2021/05/06 12:55:56;;;;;;;1.00;0.50;;;;;;;;;;5025601;28;20051;-78
2021/05/06 12:58:29;;;;;;;1.40;0.60;;;;;;;;;;5041725;28;20028;-77
2021/05/06 13:00:55;;;;;;;1.00;0.50;;;;;;;;;;5025257;28;20029;-77
2021/05/06 13:03:29;;;;;;;1.25;0.60;;;;;;;;;;5057757;28;20052;-79
2021/05/06 13:05:55;;;;;;;1.10;0.40;;;;;;;;;;5062548;28;20070;-78
2021/05/06 13:08:42;;;;;;;0.80;0.50;;;;;;;;;;5025119;28;20062;-78
2021/05/06 13:11:28;;;;;;;1.40;0.60;;;;;;;;;;5035600;28;20403;-77
2021/05/06 13:13:55;;;;;;;1.48;0.60;;;;;;;;;;5045625;28;20035;-77
2021/05/06 13:16:36;;;;;;;;;;;;;;;;;;5041459;28;20036;-77
2021/05/06 13:19:03;;;;;;;1.33;0.50;;;;;;;;;;5057611;28;19908;-77
2021/05/06 13:21:28;;;;;;;;;;;;;;;;;;5024516;28;20031;-77
2021/05/06 13:23:54;;;;;;;2.10;0.60;;;;;;;;;;5054353;28;20299;-78
2021/05/06 13:26:36;;;;;;;0.90;0.50;;;;;;;;;;5026405;28;20645;-77
2021/05/06 13:29:03;;;;;;;0.80;0.45;;;;;;;;;;5023970;28;20025;-78
2021/05/06 13:31:33;;;;;;;0.98;0.40;;;;;;;;;;5040175;28;20040;-78
2021/05/06 13:34:15;;;;;;;0.70;0.50;;;;;;;;;;5021395;28;20025;-78
2021/05/06 13:36:58;;;;;;;0.93;0.45;;;;;;;;;;5054133;28;20024;-78
2021/05/06 13:39:23;;;;;;;1.23;0.52;;;;;;;;;;5064727;28;20021;-77
2021/05/06 13:41:48;;;;;;;1.40;0.60;;;;;;;;;;5023805;28;20052;-77
2021/05/06 13:44:23;;;;;;;0.83;0.40;;;;;;;;;;5023847;28;20039;-77
2021/05/06 13:46:55;;;;;;;0.80;0.40;;;;;;;;;;5025725;28;20055;-78
2021/05/06 13:49:21;;;;;;;1.75;0.60;;;;;;;;;;5025434;28;20028;-78
2021/05/06 13:51:47;;;;;;;1.05;0.47;;;;;;;;;;5039728;28;20063;-78
2021/05/06 13:54:12;;;;;;;1.20;0.50;;;;;;;;;;5056875;28;20032;-78
2021/05/06 13:56:37;;;;;;;0.73;0.50;;;;;;;;;;5040533;28;20447;-78
2021/05/06 13:59:03;;;;;;;0.90;0.47;;;;;;;;;;5024565;28;20048;-78
2021/05/06 14:01:28;;;;;;;0.73;0.40;;;;;;;;;;5039823;28;20032;-78
2021/05/06 14:03:53;;;;;;;1.47;0.60;;;;;;;;;;5051225;28;20584;-77
2021/05/06 14:06:19;;;;;;;1.83;0.60;;;;;;;;;;5043442;28;20496;-77
2021/05/06 14:08:44;;;;;;;1.17;0.60;;;;;;;;;;5043511;28;20028;-77
2021/05/06 14:11:09;;;;;;;0.80;0.50;;;;;;;;;;5025289;28;20029;-76
2021/05/06 14:13:35;;;;;;;1.00;0.60;;;;;;;;;;5043245;28;20024;-76
2021/05/06 14:16:00;;;;;;;2.03;0.70;;;;;;;;;;5050856;28;20456;-77
2021/05/06 14:18:26;;;;;;;1.13;0.60;;;;;;;;;;5038951;28;20052;-81
2021/05/06 14:20:53;;;;;;;1.00;0.47;;;;;;;;;;5036449;28;20531;-79
2021/05/06 14:23:19;;;;;;;0.50;0.40;;;;;;;;;;5036680;28;20032;-79
2021/05/06 14:25:46;;;;;;;0.90;0.57;;;;;;;;;;5036741;28;20028;-82
2021/05/06 14:28:11;;;;;;;0.98;0.47;;;;;;;;;;5020341;28;20479;-79
2021/05/06 14:30:36;;;;;;;1.00;0.40;;;;;;;;;;5022578;28;20067;-82
2021/05/06 14:33:02;;;;;;;1.03;0.57;;;;;;;;;;5040640;28;20399;-80
2021/05/06 14:35:27;;;;;;;0.80;0.50;;;;;;;;;;5038934;28;20261;-78
2021/05/06 14:37:53;;;;;;;0.83;0.47;;;;;;;;;;5041276;28;20082;-78
2021/05/06 14:40:18;;;;;;;0.68;0.40;;;;;;;;;;5023185;28;20640;-80
2021/05/06 14:42:44;;;;;;;1.67;0.50;;;;;;;;;;5021933;28;20469;-80
2021/05/06 14:45:10;;;;;;;1.13;0.50;;;;;;;;;;5040930;28;20044;-81
2021/05/06 14:47:39;;;;;;;1.15;0.55;;;;;;;;;;5022560;28;20055;-82
2021/05/06 14:50:12;;;;;;;1.00;0.50;;;;;;;;;;5038443;28;20032;-78
2021/05/06 14:52:37;;;;;;;1.40;0.55;;;;;;;;;;5037780;28;20025;-78
2021/05/06 14:55:04;;;;;;;0.70;0.40;;;;;;;;;;5020634;28;20116;-78
2021/05/06 14:57:30;;;;;;;1.25;0.40;;;;;;;;;;5021971;28;20059;-78
2021/05/06 14:59:55;;;;;;;0.80;0.50;;;;;;;;;;5037436;28;20448;-79
2021/05/06 15:02:20;;;;;;;0.73;0.47;;;;;;;;;;5037860;28;20458;-79
2021/05/06 15:04:46;;;;;;;1.03;0.43;;;;;;;;;;5041814;28;20044;-79
2021/05/06 15:07:11;;;;;;;0.63;0.50;;;;;;;;;;5059978;28;20028;-79
2021/05/06 15:09:36;;;;;;;0.90;0.50;;;;;;;;;;5035898;28;20120;-78
2021/05/06 15:12:02;;;;;;;0.83;0.50;;;;;;;;;;5057231;28;20567;-80
2021/05/06 15:14:27;;;;;;;0.87;0.43;;;;;;;;;;5041950;28;20055;-79
2021/05/06 15:16:53;;;;;;;1.10;0.57;;;;;;;;;;5058914;28;20021;-79
2021/05/06 15:19:19;;;;;;;0.90;0.50;;;;;;;;;;5036662;28;20182;-79
2021/05/06 15:21:44;;;;;;;1.10;0.60;;;;;;;;;;5024709;28;20028;-80
2021/05/06 15:24:10;;;;;;;1.00;0.60;;;;;;;;;;5058037;28;20047;-79
2021/05/06 15:26:36;;;;;;;0.60;0.50;;;;;;;;;;5027625;28;20047;-79
2021/05/06 15:29:03;;;;;;;0.70;0.50;;;;;;;;;;5041602;28;20035;-79
2021/05/06 15:31:28;;;;;;;;;;;;;;;;;;5024882;28;20036;-78
2021/05/06 15:33:53;;;;;;;1.80;0.60;;;;;;;;;;5037997;28;20444;-78
2021/05/06 15:36:19;;;;;;;0.80;0.47;;;;;;;;;;5035978;28;20710;-79
2021/05/06 15:38:44;;;;;;;1.70;0.80;;;;;;;;;;5024743;28;20039;-78
2021/05/06 15:41:10;;;;;;;0.73;0.43;;;;;;;;;;5039141;28;20024;-77
2021/05/06 15:43:35;;;;;;;1.27;0.50;;;;;;;;;;5039818;28;20538;-76
2021/05/06 15:46:00;;;;;;;0.83;0.60;;;;;;;;;;5056378;28;20034;-76
2021/05/06 15:48:26;;;;;;;1.50;0.60;;;;;;;;;;5023687;28;20078;-77
2021/05/06 15:50:52;;;;;;;0.98;0.60;;;;;;;;;;5023871;28;20382;-77
2021/05/06 15:53:17;;;;;;;1.37;0.50;;;;;;;;;;5024165;28;20127;-77
2021/05/06 15:55:42;;;;;;;2.03;0.70;;;;;;;;;;5047948;28;20024;-77
2021/05/06 15:58:08;;;;;;;0.70;0.50;;;;;;;;;;5040335;28;20479;-77
2021/05/06 16:00:34;;;;;;;1.17;0.57;;;;;;;;;;5057433;28;20068;-77
2021/05/06 16:03:13;;;;;;;0.90;0.50;;;;;;;;;;5055884;28;20083;-77
2021/05/06 16:05:42;;;;;;;1.65;0.60;;;;;;;;;;5042041;28;20059;-77
2021/05/06 16:08:07;;;;;;;1.52;0.55;;;;;;;;;;5049720;28;20024;-76
2021/05/06 16:10:33;;;;;;;0.97;0.60;;;;;;;;;;5045015;28;20070;-77
2021/05/06 16:12:58;;;;;;;1.75;0.73;;;;;;;;;;5021325;28;20063;-77
2021/05/06 16:15:25;;;;;;;1.00;0.60;;;;;;;;;;5021233;28;20124;-77
2021/05/06 16:17:51;;;;;;;1.38;0.60;;;;;;;;;;5021505;28;20410;-77
2021/05/06 16:20:19;;;;;;;1.47;0.50;;;;;;;;;;5021120;28;20028;-78
2021/05/06 16:22:45;;;;;;;1.17;0.60;;;;;;;;;;5038764;28;20391;-78
2021/05/06 16:25:11;;;;;;;0.90;0.57;;;;;;;;;;5037300;28;20052;-77
2021/05/06 16:27:38;;;;;;;0.95;0.52;;;;;;;;;;5037411;28;20025;-77
2021/05/06 16:30:05;;;;;;;0.98;0.63;;;;;;;;;;5020676;28;20029;-75
2021/05/06 16:32:31;;;;;;;1.92;0.60;;;;;;;;;;5036214;28;20070;-76
2021/05/06 16:34:57;;;;;;;1.67;0.70;;;;;;;;;;5037158;28;20063;-76
2021/05/06 16:37:29;;;;;;;0.95;0.45;;;;;;;;;;5036594;28;20529;-77
2021/05/06 16:44:57;;;;;;;1.10;0.65;;;;;;;;;;5054516;28;20494;-76
2021/05/06 16:47:22;;;;;;;1.47;0.70;;;;;;;;;;5036331;28;20051;-76
2021/05/06 16:49:47;;;;;;;1.67;0.60;;;;;;;;;;5052999;28;20503;-77
2021/05/06 16:52:15;;;;;;;1.93;0.60;;;;;;;;;;5020096;28;20060;-76
2021/05/06 16:54:40;;;;;;;1.05;0.60;;;;;;;;;;5019882;28;20411;-77
2021/05/06 16:57:06;;;;;;;0.97;0.63;;;;;;;;;;5020172;28;20078;-76
2021/05/06 16:59:31;;;;;;;1.07;0.60;;;;;;;;;;5053011;28;20060;-76
2021/05/06 17:01:56;;;;;;;1.07;0.60;;;;;;;;;;5070771;28;20063;-76
2021/05/06 17:04:22;;;;;;;0.73;0.50;;;;;;;;;;5039687;28;20494;-75
2021/05/06 17:06:47;;;;;;;1.80;0.60;;;;;;;;;;5057295;28;20498;-76
2021/05/06 17:09:13;;;;;;;0.93;0.50;;;;;;;;;;5041583;28;20124;-76
2021/05/06 17:11:39;;;;;;;1.55;0.70;;;;;;;;;;5025635;28;20029;-77
2021/05/06 17:14:06;;;;;;;1.33;0.68;;;;;;;;;;5023270;28;20027;-79
2021/05/06 17:16:31;;;;;;;1.08;0.50;;;;;;;;;;5037718;28;20025;-76
2021/05/06 17:18:57;;;;;;;0.93;0.50;;;;;;;;;;5020595;28;20035;-76
2021/05/06 17:21:22;;;;;;;1.50;0.70;;;;;;;;;;5021662;28;20816;-77
2021/05/06 17:23:48;;;;;;;3.07;0.70;;;;;;;;;;5022087;28;20083;-77
2021/05/06 17:26:14;;;;;;;1.80;0.60;;;;;;;;;;5036216;28;20024;-76
2021/05/06 17:28:39;;;;;;;3.03;0.60;;;;;;;;;;5035984;28;20515;-77
2021/05/06 17:31:05;;;;;;;2.00;0.70;;;;;;;;;;5019035;28;20050;-77
2021/05/06 17:33:30;;;;;;;1.83;0.40;;;;;;;;;;5019194;28;20058;-76
2021/05/06 17:35:55;;;;;;;1.73;0.60;;;;;;;;;;5035886;28;20055;-79
2021/05/06 17:38:22;;;;;;;1.60;0.60;;;;;;;;;;5054905;28;20471;-80
2021/05/06 17:40:47;;;;;;;2.65;0.60;;;;;;;;;;5040105;28;20029;-79
2021/05/06 17:43:12;;;;;;;1.30;0.60;;;;;;;;;;5039057;28;20098;-77
2021/05/06 17:45:40;;;;;;;1.73;0.80;;;;;;;;;;5037683;28;20111;-77
2021/05/06 17:48:07;;;;;;;1.58;0.57;;;;;;;;;;5054472;28;20029;-77
2021/05/06 17:50:33;;;;;;;1.70;0.63;;;;;;;;;;5021232;28;20487;-77
2021/05/06 17:52:59;;;;;;;1.00;0.52;;;;;;;;;;5021648;28;20135;-77
2021/05/06 17:55:24;;;;;;;1.17;0.60;;;;;;;;;;5021730;28;20116;-79
2021/05/06 17:57:49;;;;;;;1.83;0.60;;;;;;;;;;5038003;28;20029;-77
2021/05/06 18:00:15;;;;;;;1.37;0.63;;;;;;;;;;5036733;28;20067;-78
2021/05/06 18:02:42;;;;;;;2.72;0.68;;;;;;;;;;5020147;28;20074;-77
2021/05/06 18:05:09;;;;;;;1.77;0.60;;;;;;;;;;5020116;28;20498;-77
2021/05/06 18:07:35;;;;;;;1.67;0.60;;;;;;;;;;5034989;28;20040;-75
2021/05/06 18:10:04;;;;;;;1.23;0.67;;;;;;;;;;5018536;28;20109;-78
2021/05/06 18:12:29;;;;;;;2.17;0.70;;;;;;;;;;5020497;28;20361;-77
2021/05/06 18:14:55;;;;;;;1.27;0.60;;;;;;;;;;5035330;28;20510;-76